< < Back
Terminal Aerodrome Forecast


Current Version              Previous Versions:   1  2  3  4  5  6  7  8  9  

Terminal Aerodrome Forecast

887
FTUS42 KFFC 300900 AAA
TAFFTY
TAF AMD
KFTY 300949Z 3010/3106 00000KT P6SM BKN080
     FM301600 17006KT P6SM VCSH SCT035 BKN050 PROB30 3020/3102 6SM
      TSRA BKN045CB
     FM310200 00000KT P6SM BKN035=



Latest METAR

143
SAUS70 KWBC 302000 RRJ
MTRFTY
METAR KFTY 301953Z 20017G27KT 1 1/4SM +TSRA FEW038 BKN050 OVC090 24/22
A3010 RMK AO2 PK WND 14027/1946 LTG DSNT S RAB1858 TSB31E34
SLP185 P0018 T02440217


USA.gov is the U.S. government's official web portal to all federal, state and local government web resources and services.